Etusivu
METAR-TAF:

METAR-TAF

Lentoasemat :

Albert, Ranska

Leveyspiiri: 49-58-21N, Pituuspiiri: 002-41-29E, korkeus merenpinnasta: 111 m

Tämänhetkinen sää

Tämä raportti tehtiin 19 minuuttia sitten, kello 20.00 UTC
Tuuli 4 kn koillisesta
Lämpötila 20°C
Kosteus 56%
Ilmanpaine 1022 hPa
Näkyvyys 10 km tai enemmän
ei pilviä alle 1500 m:ssä eikä cumulonimbus-pilviä

METAR: LFAQ 232000Z AUTO 04004KT CAVOK 20/11 Q1022

Aika: 22:19 (20:19 UTC)

Sääennuste

Tämä raportti tehtiin 6 tuntia ja 19 minuuttia sitten, kello 14.00 UTC
Ennuste voimassa 23. päivästä klo 15 UTC - 23. päivään klo 24 UTC
Tuuli 5 kn koillisesta
Näkyvyys 10 km tai enemmän
ei pilviä alle 1500 m:ssä eikä cumulonimbus-pilviä

TAF: LFAQ 231400Z 2315/2324 04005KT CAVOK

Säähavainnot ja -ennusteet yli 4000 lentoasemalta (METAR- ja TAF-raportit).

Käytössä olevat sääasemat on merkitty karttaan keltaisilla ja punaisilla pisteillä.

Aseta hiiri pisteen päälle nähdäksesi sääaseman nimen.

Klikkaa sitten nähdäksesi säähavainnot ja -ennusteet.

Kartan vaihtaminen: klikkaa mustalla rastilla varustettuja vihreitä pisteitä, niin voit zoomata sisään; viivalla varustettua vihreää pistettä, niin voit zoomata ulos tai vihreitä nuolia, niin pääset viereisille kartoille.


METAR-TAF: